IGO732J VOBL-VOGO
Flight info
| Callsign | IGO732J |
|---|---|
| Flight time | N/A |
| Altitude | 32000 |
| Route | GUNIM8A GUNIM R461 GONAB GONAB2A |
| Aircraft | A320/M-SDE3FGHIRWY/LB1 |
Departure
| Time | 2026-05-07 07:20 |
|---|---|
| Airport | Kempegowda International Airport Bengaluru (VOBL) |
Arrival
| Time | N/A |
|---|---|
| Airport | Goa Dabolim International Airport (VOGO) |
| Time | Latitude | Longitude | Altitude | Speed | Heading |
|---|---|---|---|---|---|
| 2026-05-07 06:45 | 13.20175 | 77.70797 | 3011 ft | 0 kts | 180° |
| 2026-05-07 07:06 | 13.20177 | 77.70797 | 3011 ft | 2 kts | 180° |
| 2026-05-07 07:06 | 13.20197 | 77.70797 | 3011 ft | 3 kts | 180° |
| 2026-05-07 07:06 | 13.20215 | 77.70797 | 3018 ft | 3 kts | 190° |
| 2026-05-07 07:07 | 13.20234 | 77.70804 | 3025 ft | 3 kts | 229° |
| 2026-05-07 07:07 | 13.20243 | 77.70821 | 3011 ft | 3 kts | 264° |
| 2026-05-07 07:07 | 13.20243 | 77.70842 | 3011 ft | 3 kts | 271° |
| 2026-05-07 07:07 | 13.20243 | 77.70845 | 3011 ft | 0 kts | 270° |
| 2026-05-07 07:10 | 13.20243 | 77.70839 | 3011 ft | 2 kts | 270° |
| 2026-05-07 07:11 | 13.20243 | 77.70821 | 3011 ft | 3 kts | 270° |
| 2026-05-07 07:11 | 13.20243 | 77.70790 | 3011 ft | 5 kts | 270° |
| 2026-05-07 07:11 | 13.20244 | 77.70747 | 3011 ft | 7 kts | 270° |
| 2026-05-07 07:11 | 13.20244 | 77.70692 | 3011 ft | 9 kts | 270° |
| 2026-05-07 07:12 | 13.20245 | 77.70625 | 3011 ft | 10 kts | 271° |
| 2026-05-07 07:12 | 13.20246 | 77.70548 | 3011 ft | 12 kts | 270° |
| 2026-05-07 07:12 | 13.20246 | 77.70460 | 3011 ft | 13 kts | 270° |
| 2026-05-07 07:12 | 13.20277 | 77.70394 | 3011 ft | 11 kts | 339° |
| 2026-05-07 07:13 | 13.20356 | 77.70392 | 3011 ft | 12 kts | 1° |
| 2026-05-07 07:13 | 13.20445 | 77.70392 | 3011 ft | 14 kts | 0° |
| 2026-05-07 07:13 | 13.20521 | 77.70378 | 3011 ft | 10 kts | 315° |
| 2026-05-07 07:13 | 13.20534 | 77.70307 | 3012 ft | 11 kts | 269° |
| 2026-05-07 07:14 | 13.20534 | 77.70227 | 3012 ft | 12 kts | 271° |
| 2026-05-07 07:14 | 13.20535 | 77.70135 | 3012 ft | 14 kts | 270° |
| 2026-05-07 07:14 | 13.20537 | 77.70031 | 3012 ft | 15 kts | 271° |
| 2026-05-07 07:14 | 13.20537 | 77.69916 | 3011 ft | 17 kts | 270° |
| 2026-05-07 07:15 | 13.20538 | 77.69789 | 3011 ft | 19 kts | 270° |
| 2026-05-07 07:15 | 13.20540 | 77.69649 | 3011 ft | 20 kts | 270° |
| 2026-05-07 07:15 | 13.20540 | 77.69496 | 3011 ft | 22 kts | 270° |
| 2026-05-07 07:15 | 13.20542 | 77.69331 | 3011 ft | 24 kts | 270° |
| 2026-05-07 07:16 | 13.20543 | 77.69153 | 3011 ft | 26 kts | 270° |
| 2026-05-07 07:16 | 13.20545 | 77.68963 | 3011 ft | 27 kts | 271° |
| 2026-05-07 07:16 | 13.20547 | 77.68818 | 3011 ft | 9 kts | 270° |
| 2026-05-07 07:16 | 13.20547 | 77.68746 | 3011 ft | 11 kts | 270° |
| 2026-05-07 07:17 | 13.20548 | 77.68666 | 3011 ft | 12 kts | 271° |
| 2026-05-07 07:17 | 13.20603 | 77.68615 | 3012 ft | 12 kts | 357° |
| 2026-05-07 07:17 | 13.20692 | 77.68621 | 3011 ft | 10 kts | 15° |
| 2026-05-07 07:17 | 13.20720 | 77.68681 | 3011 ft | 11 kts | 89° |
| 2026-05-07 07:18 | 13.20720 | 77.68707 | 3011 ft | 0 kts | 91° |
| 2026-05-07 07:19 | 13.20719 | 77.68784 | 3011 ft | 37 kts | 90° |
| 2026-05-07 07:19 | 13.20714 | 77.69294 | 3011 ft | 102 kts | 91° |
| 2026-05-07 07:19 | 13.20706 | 77.70202 | 3011 ft | 150 kts | 90° |
| 2026-05-07 07:19 | 13.20701 | 77.71383 | 3147 ft | 178 kts | 91° |
| 2026-05-07 07:20 | 13.20817 | 77.72631 | 3876 ft | 176 kts | 67° |
| 2026-05-07 07:20 | 13.21434 | 77.73736 | 4408 ft | 183 kts | 59° |
| 2026-05-07 07:20 | 13.21887 | 77.74509 | 4554 ft | 197 kts | 60° |
| 2026-05-07 07:20 | 13.22624 | 77.75795 | 4746 ft | 219 kts | 60° |
| 2026-05-07 07:21 | 13.23698 | 77.77705 | 5075 ft | 246 kts | 61° |
| 2026-05-07 07:21 | 13.24279 | 77.78751 | 5299 ft | 263 kts | 61° |
| 2026-05-07 07:21 | 13.25207 | 77.80429 | 5961 ft | 274 kts | 61° |
| 2026-05-07 07:21 | 13.26189 | 77.82121 | 6783 ft | 278 kts | 53° |
| 2026-05-07 07:22 | 13.27738 | 77.83325 | 7550 ft | 285 kts | 20° |
| 2026-05-07 07:22 | 13.29689 | 77.83641 | 8332 ft | 289 kts | 4° |
| 2026-05-07 07:22 | 13.31700 | 77.83542 | 9167 ft | 293 kts | 348° |
| 2026-05-07 07:22 | 13.33625 | 77.82809 | 9972 ft | 297 kts | 333° |
| 2026-05-07 07:23 | 13.35464 | 77.81688 | 10325 ft | 317 kts | 331° |
| 2026-05-07 07:23 | 13.37409 | 77.80521 | 10629 ft | 334 kts | 331° |
| 2026-05-07 07:23 | 13.39452 | 77.79320 | 11204 ft | 340 kts | 332° |
| 2026-05-07 07:23 | 13.41523 | 77.78114 | 11859 ft | 344 kts | 332° |
| 2026-05-07 07:24 | 13.43626 | 77.76895 | 12510 ft | 348 kts | 332° |
| 2026-05-07 07:24 | 13.45730 | 77.75676 | 13162 ft | 351 kts | 331° |
| 2026-05-07 07:24 | 13.47874 | 77.74434 | 13746 ft | 355 kts | 331° |
| 2026-05-07 07:24 | 13.49959 | 77.73100 | 13923 ft | 357 kts | 322° |
| 2026-05-07 07:25 | 13.53051 | 77.69137 | 14122 ft | 361 kts | 294° |
| 2026-05-07 07:25 | 13.53835 | 77.66674 | 14730 ft | 362 kts | 281° |
| 2026-05-07 07:25 | 13.54189 | 77.64138 | 15315 ft | 364 kts | 277° |
| 2026-05-07 07:26 | 13.54506 | 77.61540 | 15907 ft | 366 kts | 277° |
| 2026-05-07 07:26 | 13.54810 | 77.58923 | 16479 ft | 368 kts | 277° |
| 2026-05-07 07:26 | 13.55105 | 77.56327 | 17046 ft | 371 kts | 277° |
| 2026-05-07 07:26 | 13.55403 | 77.53687 | 17611 ft | 373 kts | 277° |
| 2026-05-07 07:27 | 13.55705 | 77.51017 | 18187 ft | 376 kts | 277° |
| 2026-05-07 07:27 | 13.56010 | 77.48336 | 18658 ft | 378 kts | 277° |
| 2026-05-07 07:27 | 13.56312 | 77.45666 | 19098 ft | 381 kts | 277° |
| 2026-05-07 07:27 | 13.56613 | 77.42942 | 19538 ft | 385 kts | 277° |
| 2026-05-07 07:28 | 13.56913 | 77.40194 | 19977 ft | 388 kts | 277° |
| 2026-05-07 07:28 | 13.57213 | 77.37423 | 20424 ft | 391 kts | 277° |
| 2026-05-07 07:28 | 13.57513 | 77.34665 | 20853 ft | 394 kts | 277° |
| 2026-05-07 07:28 | 13.57819 | 77.31853 | 21283 ft | 397 kts | 277° |
| 2026-05-07 07:29 | 13.58127 | 77.29021 | 21709 ft | 400 kts | 277° |
| 2026-05-07 07:29 | 13.58441 | 77.26163 | 22118 ft | 403 kts | 277° |
| 2026-05-07 07:29 | 13.58757 | 77.23286 | 22518 ft | 406 kts | 277° |
| 2026-05-07 07:29 | 13.59074 | 77.20385 | 22930 ft | 409 kts | 277° |
| 2026-05-07 07:30 | 13.59391 | 77.17474 | 23329 ft | 412 kts | 277° |
| 2026-05-07 07:30 | 13.59706 | 77.14567 | 23688 ft | 415 kts | 277° |
| 2026-05-07 07:30 | 13.60026 | 77.11605 | 24027 ft | 417 kts | 277° |
| 2026-05-07 07:30 | 13.60350 | 77.08628 | 24366 ft | 419 kts | 277° |
| 2026-05-07 07:31 | 13.60675 | 77.05635 | 24712 ft | 421 kts | 277° |
| 2026-05-07 07:31 | 13.60997 | 77.02666 | 25045 ft | 423 kts | 277° |
| 2026-05-07 07:31 | 13.61325 | 76.99638 | 25389 ft | 425 kts | 277° |
| 2026-05-07 07:31 | 13.61655 | 76.96590 | 25742 ft | 427 kts | 277° |
| 2026-05-07 07:32 | 13.61979 | 76.93581 | 26090 ft | 429 kts | 277° |
| 2026-05-07 07:32 | 13.62308 | 76.90518 | 26420 ft | 431 kts | 277° |
| 2026-05-07 07:32 | 13.62640 | 76.87434 | 26749 ft | 434 kts | 277° |
| 2026-05-07 07:32 | 13.62973 | 76.84343 | 27064 ft | 436 kts | 277° |
| 2026-05-07 07:33 | 13.63306 | 76.81232 | 27384 ft | 438 kts | 277° |
| 2026-05-07 07:33 | 13.63635 | 76.78144 | 27703 ft | 440 kts | 277° |
| 2026-05-07 07:33 | 13.63973 | 76.75012 | 28022 ft | 442 kts | 277° |
| 2026-05-07 07:33 | 13.64210 | 76.72802 | 28238 ft | 444 kts | 276° |